sensor_id;sensor_type;location;lat;lon;timestamp;P1;durP1;ratioP1;P2;durP2;ratioP2
21569;SDS011;57598;50.888;4.746;2023-09-19T02:28:05;60.00;;;55.00;;
21569;SDS011;57598;50.888;4.746;2023-09-19T02:30:33;62.08;;;56.88;;
21569;SDS011;57598;50.888;4.746;2023-09-19T02:33:01;61.72;;;56.53;;
21569;SDS011;57598;50.888;4.746;2023-09-19T02:35:29;62.17;;;56.53;;
21569;SDS011;57598;50.888;4.746;2023-09-19T02:38:00;61.30;;;56.17;;
21569;SDS011;57598;50.888;4.746;2023-09-19T02:40:31;61.22;;;56.28;;
21569;SDS011;57598;50.888;4.746;2023-09-19T02:43:01;60.83;;;55.58;;
21569;SDS011;57598;50.888;4.746;2023-09-19T02:45:29;60.70;;;55.80;;
21569;SDS011;57598;50.888;4.746;2023-09-19T02:47:57;58.65;;;53.95;;
21569;SDS011;57598;50.888;4.746;2023-09-19T02:50:24;61.63;;;56.53;;
21569;SDS011;57598;50.888;4.746;2023-09-19T02:52:51;60.83;;;55.42;;
21569;SDS011;57598;50.888;4.746;2023-09-19T02:55:20;57.47;;;52.67;;
21569;SDS011;57598;50.888;4.746;2023-09-19T02:57:47;70.13;;;54.78;;
21569;SDS011;57598;50.888;4.746;2023-09-19T03:00:15;58.67;;;53.88;;
21569;SDS011;57598;50.888;4.746;2023-09-19T03:02:48;60.10;;;54.95;;
21569;SDS011;57598;50.888;4.746;2023-09-19T03:05:15;58.42;;;53.85;;
21569;SDS011;57598;50.888;4.746;2023-09-19T03:07:43;58.67;;;53.72;;
21569;SDS011;57598;50.888;4.746;2023-09-19T03:10:10;58.38;;;52.88;;
21569;SDS011;57598;50.888;4.746;2023-09-19T03:12:39;56.03;;;51.33;;
21569;SDS011;57598;50.888;4.746;2023-09-19T03:15:07;56.55;;;51.95;;
21569;SDS011;57598;50.888;4.746;2023-09-19T03:17:35;57.45;;;52.95;;
21569;SDS011;57598;50.888;4.746;2023-09-19T03:20:04;56.58;;;51.90;;
21569;SDS011;57598;50.888;4.746;2023-09-19T03:22:33;55.10;;;50.17;;
21569;SDS011;57598;50.888;4.746;2023-09-19T03:25:01;55.45;;;50.75;;
21569;SDS011;57598;50.888;4.746;2023-09-19T03:27:33;56.60;;;51.90;;
21569;SDS011;57598;50.888;4.746;2023-09-19T03:30:00;54.47;;;49.85;;
21569;SDS011;57598;50.888;4.746;2023-09-19T03:32:30;56.85;;;52.25;;
21569;SDS011;57598;50.888;4.746;2023-09-19T03:34:58;54.05;;;49.50;;
21569;SDS011;57598;50.888;4.746;2023-09-19T03:37:26;54.88;;;50.40;;
21569;SDS011;57598;50.888;4.746;2023-09-19T03:39:54;55.78;;;50.50;;
21569;SDS011;57598;50.888;4.746;2023-09-19T03:42:21;54.08;;;49.88;;
21569;SDS011;57598;50.888;4.746;2023-09-19T03:44:50;55.47;;;51.10;;
21569;SDS011;57598;50.888;4.746;2023-09-19T03:47:20;57.75;;;52.80;;
21569;SDS011;57598;50.888;4.746;2023-09-19T03:49:47;58.83;;;54.22;;
21569;SDS011;57598;50.888;4.746;2023-09-19T03:52:14;56.55;;;52.05;;
21569;SDS011;57598;50.888;4.746;2023-09-19T03:54:43;59.47;;;54.58;;
21569;SDS011;57598;50.888;4.746;2023-09-19T03:57:10;65.78;;;59.70;;
21569;SDS011;57598;50.888;4.746;2023-09-19T03:59:40;61.05;;;55.72;;
21569;SDS011;57598;50.888;4.746;2023-09-19T04:02:09;62.35;;;57.05;;
21569;SDS011;57598;50.888;4.746;2023-09-19T04:04:47;68.38;;;62.88;;
21569;SDS011;57598;50.888;4.746;2023-09-19T04:07:14;65.68;;;59.88;;
21569;SDS011;57598;50.888;4.746;2023-09-19T04:09:41;64.75;;;59.55;;
21569;SDS011;57598;50.888;4.746;2023-09-19T04:12:10;64.53;;;59.13;;
21569;SDS011;57598;50.888;4.746;2023-09-19T04:14:37;64.00;;;58.90;;
21569;SDS011;57598;50.888;4.746;2023-09-19T04:17:04;65.28;;;59.92;;
21569;SDS011;57598;50.888;4.746;2023-09-19T04:19:31;68.10;;;62.70;;
21569;SDS011;57598;50.888;4.746;2023-09-19T04:21:59;66.60;;;60.75;;
21569;SDS011;57598;50.888;4.746;2023-09-19T04:24:26;66.65;;;60.55;;
21569;SDS011;57598;50.888;4.746;2023-09-19T04:26:53;65.18;;;59.88;;
21569;SDS011;57598;50.888;4.746;2023-09-19T04:29:23;63.80;;;58.60;;
21569;SDS011;57598;50.888;4.746;2023-09-19T04:31:51;69.43;;;63.47;;
21569;SDS011;57598;50.888;4.746;2023-09-19T04:34:18;66.95;;;61.08;;
21569;SDS011;57598;50.888;4.746;2023-09-19T04:36:46;65.47;;;60.20;;
21569;SDS011;57598;50.888;4.746;2023-09-19T04:39:13;65.05;;;59.20;;
21569;SDS011;57598;50.888;4.746;2023-09-19T04:41:41;63.85;;;58.45;;
21569;SDS011;57598;50.888;4.746;2023-09-19T04:44:10;62.65;;;57.45;;
21569;SDS011;57598;50.888;4.746;2023-09-19T04:46:39;63.60;;;58.38;;
21569;SDS011;57598;50.888;4.746;2023-09-19T04:49:06;69.43;;;64.10;;
21569;SDS011;57598;50.888;4.746;2023-09-19T04:51:33;68.45;;;63.05;;
21569;SDS011;57598;50.888;4.746;2023-09-19T04:54:01;66.03;;;60.63;;
21569;SDS011;57598;50.888;4.746;2023-09-19T04:56:28;64.35;;;58.25;;
21569;SDS011;57598;50.888;4.746;2023-09-19T04:58:56;62.50;;;56.80;;
21569;SDS011;57598;50.888;4.746;2023-09-19T05:01:23;65.80;;;60.03;;
21569;SDS011;57598;50.888;4.746;2023-09-19T05:03:52;66.88;;;61.53;;
21569;SDS011;57598;50.888;4.746;2023-09-19T05:06:19;65.80;;;60.17;;
21569;SDS011;57598;50.888;4.746;2023-09-19T05:08:47;65.20;;;59.80;;
21569;SDS011;57598;50.888;4.746;2023-09-19T05:11:16;62.92;;;57.83;;
21569;SDS011;57598;50.888;4.746;2023-09-19T05:13:43;64.22;;;58.92;;
21569;SDS011;57598;50.888;4.746;2023-09-19T05:16:10;63.17;;;57.97;;
21569;SDS011;57598;50.888;4.746;2023-09-19T05:18:37;64.25;;;58.83;;
21569;SDS011;57598;50.888;4.746;2023-09-19T05:21:07;62.47;;;57.33;;
21569;SDS011;57598;50.888;4.746;2023-09-19T05:23:34;62.97;;;57.78;;
21569;SDS011;57598;50.888;4.746;2023-09-19T05:26:02;70.57;;;65.07;;
21569;SDS011;57598;50.888;4.746;2023-09-19T05:28:30;69.75;;;63.47;;
21569;SDS011;57598;50.888;4.746;2023-09-19T05:30:59;62.88;;;57.65;;
21569;SDS011;57598;50.888;4.746;2023-09-19T05:33:27;64.80;;;59.50;;
21569;SDS011;57598;50.888;4.746;2023-09-19T05:35:57;67.15;;;61.08;;
21569;SDS011;57598;50.888;4.746;2023-09-19T05:38:25;66.95;;;61.45;;
21569;SDS011;57598;50.888;4.746;2023-09-19T05:40:52;70.40;;;64.88;;
21569;SDS011;57598;50.888;4.746;2023-09-19T05:43:20;63.50;;;58.03;;
21569;SDS011;57598;50.888;4.746;2023-09-19T05:45:47;64.15;;;58.58;;
21569;SDS011;57598;50.888;4.746;2023-09-19T05:48:17;64.03;;;58.72;;
21569;SDS011;57598;50.888;4.746;2023-09-19T05:50:46;66.20;;;60.55;;
21569;SDS011;57598;50.888;4.746;2023-09-19T05:53:13;66.55;;;60.72;;
21569;SDS011;57598;50.888;4.746;2023-09-19T05:55:42;65.72;;;60.53;;
21569;SDS011;57598;50.888;4.746;2023-09-19T05:58:10;66.93;;;61.58;;
21569;SDS011;57598;50.888;4.746;2023-09-19T06:00:39;69.15;;;63.70;;
21569;SDS011;57598;50.888;4.746;2023-09-19T06:03:09;65.77;;;60.37;;
21569;SDS011;57598;50.888;4.746;2023-09-19T06:05:38;65.57;;;60.38;;
21569;SDS011;57598;50.888;4.746;2023-09-19T06:08:07;65.22;;;60.05;;
21569;SDS011;57598;50.888;4.746;2023-09-19T06:10:34;66.85;;;61.45;;
21569;SDS011;57598;50.888;4.746;2023-09-19T06:13:03;69.45;;;62.80;;
21569;SDS011;57598;50.888;4.746;2023-09-19T06:15:31;65.03;;;59.95;;
21569;SDS011;57598;50.888;4.746;2023-09-19T06:18:01;66.03;;;60.72;;
21569;SDS011;57598;50.888;4.746;2023-09-19T06:20:30;62.50;;;57.50;;
21569;SDS011;57598;50.888;4.746;2023-09-19T06:22:58;62.45;;;57.45;;
21569;SDS011;57598;50.888;4.746;2023-09-19T06:25:27;61.20;;;56.15;;
21569;SDS011;57598;50.888;4.746;2023-09-19T06:27:54;61.88;;;57.08;;
21569;SDS011;57598;50.888;4.746;2023-09-19T06:30:26;64.45;;;59.33;;
21569;SDS011;57598;50.888;4.746;2023-09-19T06:32:57;64.45;;;58.97;;
21569;SDS011;57598;50.888;4.746;2023-09-19T06:35:25;65.65;;;60.10;;
21569;SDS011;57598;50.888;4.746;2023-09-19T06:37:53;64.45;;;58.67;;
21569;SDS011;57598;50.888;4.746;2023-09-19T06:40:22;64.60;;;58.80;;
21569;SDS011;57598;50.888;4.746;2023-09-19T06:42:50;66.72;;;61.13;;
21569;SDS011;57598;50.888;4.746;2023-09-19T06:45:19;64.43;;;59.08;;
21569;SDS011;57598;50.888;4.746;2023-09-19T06:47:49;62.40;;;57.40;;
21569;SDS011;57598;50.888;4.746;2023-09-19T06:50:16;62.30;;;57.30;;
21569;SDS011;57598;50.888;4.746;2023-09-19T06:52:45;62.75;;;57.75;;
21569;SDS011;57598;50.888;4.746;2023-09-19T06:55:15;65.28;;;60.30;;
21569;SDS011;57598;50.888;4.746;2023-09-19T06:57:44;62.65;;;57.70;;
21569;SDS011;57598;50.888;4.746;2023-09-19T07:00:11;61.75;;;57.05;;
21569;SDS011;57598;50.888;4.746;2023-09-19T07:02:43;61.50;;;56.90;;
21569;SDS011;57598;50.888;4.746;2023-09-19T07:05:12;61.05;;;56.25;;
21569;SDS011;57598;50.888;4.746;2023-09-19T07:07:39;59.92;;;55.45;;
21569;SDS011;57598;50.888;4.746;2023-09-19T07:10:07;65.15;;;59.45;;
21569;SDS011;57598;50.888;4.746;2023-09-19T07:12:36;59.25;;;54.85;;
21569;SDS011;57598;50.888;4.746;2023-09-19T07:15:03;58.70;;;54.22;;
21569;SDS011;57598;50.888;4.746;2023-09-19T07:17:31;59.03;;;54.33;;
21569;SDS011;57598;50.888;4.746;2023-09-19T07:19:58;59.08;;;54.85;;
21569;SDS011;57598;50.888;4.746;2023-09-19T07:22:27;58.58;;;54.38;;
21569;SDS011;57598;50.888;4.746;2023-09-19T07:24:55;61.88;;;56.47;;
21569;SDS011;57598;50.888;4.746;2023-09-19T07:27:22;58.80;;;54.40;;
21569;SDS011;57598;50.888;4.746;2023-09-19T07:29:50;59.42;;;54.67;;
21569;SDS011;57598;50.888;4.746;2023-09-19T07:32:17;57.33;;;53.00;;
21569;SDS011;57598;50.888;4.746;2023-09-19T07:34:45;55.88;;;52.05;;
21569;SDS011;57598;50.888;4.746;2023-09-19T07:37:12;54.22;;;50.35;;
21569;SDS011;57598;50.888;4.746;2023-09-19T07:39:42;53.67;;;49.92;;
21569;SDS011;57598;50.888;4.746;2023-09-19T07:42:10;50.90;;;46.95;;
21569;SDS011;57598;50.888;4.746;2023-09-19T07:44:42;51.58;;;47.55;;
21569;SDS011;57598;50.888;4.746;2023-09-19T07:47:12;47.85;;;44.58;;
21569;SDS011;57598;50.888;4.746;2023-09-19T07:49:39;50.50;;;47.15;;
21569;SDS011;57598;50.888;4.746;2023-09-19T07:52:07;50.17;;;47.28;;
21569;SDS011;57598;50.888;4.746;2023-09-19T07:54:35;50.92;;;47.47;;
21569;SDS011;57598;50.888;4.746;2023-09-19T07:57:05;50.75;;;47.30;;
21569;SDS011;57598;50.888;4.746;2023-09-19T07:59:32;48.67;;;45.47;;
21569;SDS011;57598;50.888;4.746;2023-09-19T08:01:59;46.70;;;44.00;;
21569;SDS011;57598;50.888;4.746;2023-09-19T08:04:29;45.35;;;42.65;;
21569;SDS011;57598;50.888;4.746;2023-09-19T08:06:58;47.10;;;43.15;;
21569;SDS011;57598;50.888;4.746;2023-09-19T08:09:28;48.65;;;45.42;;
21569;SDS011;57598;50.888;4.746;2023-09-19T08:11:58;45.58;;;43.08;;
21569;SDS011;57598;50.888;4.746;2023-09-19T08:14:29;45.50;;;42.67;;
21569;SDS011;57598;50.888;4.746;2023-09-19T08:16:56;45.45;;;42.50;;
21569;SDS011;57598;50.888;4.746;2023-09-19T08:19:24;45.58;;;42.70;;
21569;SDS011;57598;50.888;4.746;2023-09-19T08:21:54;42.03;;;39.63;;
21569;SDS011;57598;50.888;4.746;2023-09-19T08:24:23;41.30;;;38.75;;
21569;SDS011;57598;50.888;4.746;2023-09-19T08:26:52;41.75;;;39.17;;
21569;SDS011;57598;50.888;4.746;2023-09-19T08:29:20;40.85;;;38.03;;
21569;SDS011;57598;50.888;4.746;2023-09-19T08:31:54;37.72;;;35.40;;
21569;SDS011;57598;50.888;4.746;2023-09-19T08:34:21;36.13;;;34.13;;
21569;SDS011;57598;50.888;4.746;2023-09-19T08:36:49;35.90;;;33.47;;
21569;SDS011;57598;50.888;4.746;2023-09-19T08:39:17;35.17;;;32.30;;
21569;SDS011;57598;50.888;4.746;2023-09-19T08:41:45;32.28;;;30.55;;
21569;SDS011;57598;50.888;4.746;2023-09-19T08:44:12;31.25;;;29.00;;
21569;SDS011;57598;50.888;4.746;2023-09-19T08:46:40;32.78;;;30.88;;
21569;SDS011;57598;50.888;4.746;2023-09-19T08:49:21;32.40;;;30.40;;
21569;SDS011;57598;50.888;4.746;2023-09-19T08:51:53;30.60;;;28.70;;
21569;SDS011;57598;50.888;4.746;2023-09-19T08:54:24;30.90;;;29.20;;
21569;SDS011;57598;50.888;4.746;2023-09-19T08:56:52;31.40;;;29.42;;
21569;SDS011;57598;50.888;4.746;2023-09-19T08:59:21;26.77;;;25.10;;
21569;SDS011;57598;50.888;4.746;2023-09-19T09:01:52;28.02;;;25.55;;
21569;SDS011;57598;50.888;4.746;2023-09-19T09:04:20;26.25;;;24.20;;
21569;SDS011;57598;50.888;4.746;2023-09-19T09:06:51;22.13;;;20.83;;
21569;SDS011;57598;50.888;4.746;2023-09-19T09:09:19;20.88;;;19.50;;
21569;SDS011;57598;50.888;4.746;2023-09-19T09:11:47;22.05;;;20.60;;
21569;SDS011;57598;50.888;4.746;2023-09-19T09:14:16;19.15;;;18.00;;
21569;SDS011;57598;50.888;4.746;2023-09-19T09:16:44;19.85;;;18.55;;
21569;SDS011;57598;50.888;4.746;2023-09-19T09:19:13;24.17;;;19.30;;
21569;SDS011;57598;50.888;4.746;2023-09-19T09:21:50;20.23;;;18.77;;
21569;SDS011;57598;50.888;4.746;2023-09-19T09:24:26;19.08;;;17.88;;
21569;SDS011;57598;50.888;4.746;2023-09-19T09:26:55;18.30;;;17.10;;
21569;SDS011;57598;50.888;4.746;2023-09-19T09:32:16;17.88;;;16.55;;
21569;SDS011;57598;50.888;4.746;2023-09-19T09:34:45;16.90;;;15.70;;
21569;SDS011;57598;50.888;4.746;2023-09-19T09:37:16;18.92;;;17.65;;
21569;SDS011;57598;50.888;4.746;2023-09-19T09:39:54;18.67;;;17.33;;
21569;SDS011;57598;50.888;4.746;2023-09-19T09:42:30;17.20;;;16.10;;
21569;SDS011;57598;50.888;4.746;2023-09-19T09:45:14;19.20;;;17.70;;
21569;SDS011;57598;50.888;4.746;2023-09-19T09:47:42;18.50;;;17.30;;
21569;SDS011;57598;50.888;4.746;2023-09-19T09:50:22;18.05;;;16.33;;
21569;SDS011;57598;50.888;4.746;2023-09-19T09:52:55;18.50;;;16.85;;
21569;SDS011;57598;50.888;4.746;2023-09-19T09:55:32;20.25;;;18.35;;
21569;SDS011;57598;50.888;4.746;2023-09-19T09:58:20;18.30;;;16.83;;
21569;SDS011;57598;50.888;4.746;2023-09-19T10:00:53;17.57;;;16.47;;
21569;SDS011;57598;50.888;4.746;2023-09-19T10:03:30;17.17;;;15.77;;
21569;SDS011;57598;50.888;4.746;2023-09-19T10:05:58;17.05;;;15.98;;
21569;SDS011;57598;50.888;4.746;2023-09-19T10:08:35;18.35;;;16.95;;
21569;SDS011;57598;50.888;4.746;2023-09-19T10:11:14;17.30;;;16.30;;
21569;SDS011;57598;50.888;4.746;2023-09-19T10:13:43;17.30;;;16.15;;
21569;SDS011;57598;50.888;4.746;2023-09-19T10:16:12;16.90;;;15.90;;
21569;SDS011;57598;50.888;4.746;2023-09-19T10:18:40;18.30;;;17.00;;
21569;SDS011;57598;50.888;4.746;2023-09-19T10:21:08;17.90;;;16.65;;
21569;SDS011;57598;50.888;4.746;2023-09-19T10:23:38;16.83;;;15.63;;
21569;SDS011;57598;50.888;4.746;2023-09-19T10:26:09;16.60;;;15.50;;
21569;SDS011;57598;50.888;4.746;2023-09-19T10:28:36;17.10;;;16.00;;
21569;SDS011;57598;50.888;4.746;2023-09-19T10:31:04;16.42;;;15.02;;
21569;SDS011;57598;50.888;4.746;2023-09-19T10:33:35;16.70;;;15.35;;
21569;SDS011;57598;50.888;4.746;2023-09-19T10:36:04;17.05;;;16.02;;
21569;SDS011;57598;50.888;4.746;2023-09-19T10:38:31;16.92;;;15.93;;
21569;SDS011;57598;50.888;4.746;2023-09-19T10:41:02;16.50;;;15.13;;
21569;SDS011;57598;50.888;4.746;2023-09-19T10:43:30;16.83;;;15.70;;
21569;SDS011;57598;50.888;4.746;2023-09-19T10:46:00;17.17;;;15.88;;
21569;SDS011;57598;50.888;4.746;2023-09-19T10:48:29;17.80;;;16.63;;
21569;SDS011;57598;50.888;4.746;2023-09-19T10:50:58;17.63;;;16.55;;
21569;SDS011;57598;50.888;4.746;2023-09-19T10:53:29;19.23;;;17.77;;
21569;SDS011;57598;50.888;4.746;2023-09-19T10:55:59;16.63;;;15.60;;
21569;SDS011;57598;50.888;4.746;2023-09-19T10:58:36;19.95;;;16.80;;
21569;SDS011;57598;50.888;4.746;2023-09-19T11:01:05;16.70;;;15.50;;
21569;SDS011;57598;50.888;4.746;2023-09-19T11:03:45;22.42;;;15.32;;
21569;SDS011;57598;50.888;4.746;2023-09-19T11:06:14;17.08;;;15.80;;
21569;SDS011;57598;50.888;4.746;2023-09-19T11:08:55;17.52;;;16.42;;
21569;SDS011;57598;50.888;4.746;2023-09-19T11:14:14;16.98;;;15.63;;
21569;SDS011;57598;50.888;4.746;2023-09-19T11:16:52;16.67;;;15.63;;
21569;SDS011;57598;50.888;4.746;2023-09-19T11:25:43;18.17;;;16.75;;
21569;SDS011;57598;50.888;4.746;2023-09-19T11:30:58;16.92;;;15.73;;
21569;SDS011;57598;50.888;4.746;2023-09-19T11:33:26;15.77;;;14.45;;
21569;SDS011;57598;50.888;4.746;2023-09-19T11:35:58;15.07;;;14.15;;
21569;SDS011;57598;50.888;4.746;2023-09-19T11:46:54;15.98;;;14.77;;
21569;SDS011;57598;50.888;4.746;2023-09-19T11:49:25;14.18;;;13.18;;
21569;SDS011;57598;50.888;4.746;2023-09-19T11:51:57;15.95;;;14.48;;
21569;SDS011;57598;50.888;4.746;2023-09-19T11:54:27;15.68;;;14.68;;
21569;SDS011;57598;50.888;4.746;2023-09-19T11:56:56;17.65;;;15.77;;
21569;SDS011;57598;50.888;4.746;2023-09-19T11:59:25;16.95;;;15.75;;
21569;SDS011;57598;50.888;4.746;2023-09-19T12:01:53;20.05;;;14.82;;
21569;SDS011;57598;50.888;4.746;2023-09-19T12:04:31;15.52;;;14.52;;
21569;SDS011;57598;50.888;4.746;2023-09-19T12:07:03;17.10;;;15.82;;
21569;SDS011;57598;50.888;4.746;2023-09-19T12:09:31;16.30;;;15.02;;
21569;SDS011;57598;50.888;4.746;2023-09-19T12:11:58;16.02;;;14.75;;
21569;SDS011;57598;50.888;4.746;2023-09-19T12:14:27;15.75;;;14.57;;
21569;SDS011;57598;50.888;4.746;2023-09-19T12:16:54;16.48;;;15.20;;
21569;SDS011;57598;50.888;4.746;2023-09-19T12:19:22;15.23;;;14.02;;
21569;SDS011;57598;50.888;4.746;2023-09-19T12:21:59;15.88;;;14.60;;
21569;SDS011;57598;50.888;4.746;2023-09-19T12:24:29;17.08;;;15.85;;
21569;SDS011;57598;50.888;4.746;2023-09-19T12:27:00;15.90;;;15.00;;
21569;SDS011;57598;50.888;4.746;2023-09-19T12:29:31;15.38;;;14.48;;
21569;SDS011;57598;50.888;4.746;2023-09-19T12:31:59;16.13;;;15.10;;
21569;SDS011;57598;50.888;4.746;2023-09-19T12:34:29;15.38;;;14.48;;
21569;SDS011;57598;50.888;4.746;2023-09-19T12:37:03;15.48;;;14.57;;
21569;SDS011;57598;50.888;4.746;2023-09-19T12:39:36;15.95;;;15.00;;
21569;SDS011;57598;50.888;4.746;2023-09-19T12:42:03;16.33;;;15.27;;
21569;SDS011;57598;50.888;4.746;2023-09-19T12:44:35;16.47;;;15.43;;
21569;SDS011;57598;50.888;4.746;2023-09-19T12:47:08;16.15;;;15.25;;
21569;SDS011;57598;50.888;4.746;2023-09-19T12:49:35;17.00;;;15.48;;
21569;SDS011;57598;50.888;4.746;2023-09-19T12:52:03;17.33;;;16.13;;
21569;SDS011;57598;50.888;4.746;2023-09-19T12:54:37;15.18;;;14.15;;
21569;SDS011;57598;50.888;4.746;2023-09-19T12:57:05;16.15;;;15.15;;
21569;SDS011;57598;50.888;4.746;2023-09-19T12:59:32;21.80;;;16.98;;
21569;SDS011;57598;50.888;4.746;2023-09-19T13:02:05;17.75;;;14.77;;
21569;SDS011;57598;50.888;4.746;2023-09-19T13:04:39;15.77;;;14.77;;
21569;SDS011;57598;50.888;4.746;2023-09-19T13:07:08;16.27;;;14.88;;
21569;SDS011;57598;50.888;4.746;2023-09-19T13:10:03;16.33;;;15.07;;
21569;SDS011;57598;50.888;4.746;2023-09-19T13:12:35;15.30;;;14.20;;
21569;SDS011;57598;50.888;4.746;2023-09-19T13:17:43;16.13;;;14.82;;
21569;SDS011;57598;50.888;4.746;2023-09-19T13:20:20;24.20;;;15.52;;
21569;SDS011;57598;50.888;4.746;2023-09-19T13:22:49;18.25;;;16.88;;
21569;SDS011;57598;50.888;4.746;2023-09-19T13:25:19;16.98;;;15.73;;
21569;SDS011;57598;50.888;4.746;2023-09-19T13:27:47;17.40;;;16.25;;
21569;SDS011;57598;50.888;4.746;2023-09-19T13:30:17;18.00;;;16.38;;
21569;SDS011;57598;50.888;4.746;2023-09-19T13:32:46;15.52;;;14.63;;
21569;SDS011;57598;50.888;4.746;2023-09-19T13:35:13;16.95;;;15.73;;
21569;SDS011;57598;50.888;4.746;2023-09-19T13:37:41;15.55;;;14.65;;
21569;SDS011;57598;50.888;4.746;2023-09-19T13:40:10;17.67;;;16.17;;
21569;SDS011;57598;50.888;4.746;2023-09-19T13:42:37;16.73;;;15.52;;
21569;SDS011;57598;50.888;4.746;2023-09-19T13:45:05;16.92;;;15.93;;
21569;SDS011;57598;50.888;4.746;2023-09-19T13:47:36;18.08;;;16.67;;
21569;SDS011;57598;50.888;4.746;2023-09-19T13:50:05;18.95;;;17.55;;
21569;SDS011;57598;50.888;4.746;2023-09-19T13:52:33;16.90;;;15.90;;
21569;SDS011;57598;50.888;4.746;2023-09-19T13:55:00;16.27;;;15.27;;
21569;SDS011;57598;50.888;4.746;2023-09-19T13:57:27;16.33;;;15.38;;
21569;SDS011;57598;50.888;4.746;2023-09-19T13:59:55;18.05;;;16.15;;
21569;SDS011;57598;50.888;4.746;2023-09-19T14:02:22;16.67;;;15.68;;
21569;SDS011;57598;50.888;4.746;2023-09-19T14:04:50;17.13;;;15.98;;
21569;SDS011;57598;50.888;4.746;2023-09-19T14:07:19;16.55;;;15.55;;
21569;SDS011;57598;50.888;4.746;2023-09-19T14:09:46;17.83;;;16.63;;
21569;SDS011;57598;50.888;4.746;2023-09-19T14:12:13;18.10;;;16.90;;
21569;SDS011;57598;50.888;4.746;2023-09-19T14:14:40;18.55;;;16.50;;
21569;SDS011;57598;50.888;4.746;2023-09-19T14:17:09;17.33;;;16.02;;
21569;SDS011;57598;50.888;4.746;2023-09-19T14:19:36;17.65;;;16.65;;
21569;SDS011;57598;50.888;4.746;2023-09-19T14:22:04;17.00;;;15.90;;
21569;SDS011;57598;50.888;4.746;2023-09-19T14:24:34;16.90;;;15.90;;
21569;SDS011;57598;50.888;4.746;2023-09-19T14:27:01;17.35;;;16.13;;
21569;SDS011;57598;50.888;4.746;2023-09-19T14:29:31;18.77;;;17.15;;
21569;SDS011;57598;50.888;4.746;2023-09-19T14:31:58;18.40;;;16.80;;
21569;SDS011;57598;50.888;4.746;2023-09-19T14:34:25;17.92;;;16.92;;
21569;SDS011;57598;50.888;4.746;2023-09-19T14:36:53;18.33;;;17.08;;
21569;SDS011;57598;50.888;4.746;2023-09-19T14:39:20;17.50;;;16.40;;
21569;SDS011;57598;50.888;4.746;2023-09-19T14:41:49;18.05;;;16.95;;
21569;SDS011;57598;50.888;4.746;2023-09-19T14:44:16;17.95;;;16.85;;
21569;SDS011;57598;50.888;4.746;2023-09-19T14:46:44;17.05;;;16.05;;
21569;SDS011;57598;50.888;4.746;2023-09-19T14:49:12;16.98;;;15.98;;
21569;SDS011;57598;50.888;4.746;2023-09-19T14:51:42;16.33;;;15.35;;
21569;SDS011;57598;50.888;4.746;2023-09-19T14:54:10;17.52;;;16.42;;
21569;SDS011;57598;50.888;4.746;2023-09-19T14:56:37;16.20;;;15.20;;
21569;SDS011;57598;50.888;4.746;2023-09-19T14:59:06;17.20;;;16.00;;
21569;SDS011;57598;50.888;4.746;2023-09-19T15:01:36;17.90;;;16.52;;
21569;SDS011;57598;50.888;4.746;2023-09-19T15:04:03;17.50;;;16.42;;
21569;SDS011;57598;50.888;4.746;2023-09-19T15:06:31;19.42;;;17.95;;
21569;SDS011;57598;50.888;4.746;2023-09-19T15:08:59;17.40;;;16.40;;
21569;SDS011;57598;50.888;4.746;2023-09-19T15:11:26;18.77;;;17.52;;
21569;SDS011;57598;50.888;4.746;2023-09-19T15:13:53;19.77;;;18.50;;
21569;SDS011;57598;50.888;4.746;2023-09-19T15:16:22;23.25;;;17.80;;
21569;SDS011;57598;50.888;4.746;2023-09-19T15:18:50;18.65;;;17.55;;
21569;SDS011;57598;50.888;4.746;2023-09-19T15:21:17;18.45;;;17.25;;
21569;SDS011;57598;50.888;4.746;2023-09-19T15:23:45;19.30;;;18.20;;
21569;SDS011;57598;50.888;4.746;2023-09-19T15:26:13;19.80;;;18.42;;
21569;SDS011;57598;50.888;4.746;2023-09-19T15:28:42;18.33;;;17.23;;
21569;SDS011;57598;50.888;4.746;2023-09-19T15:31:10;21.88;;;19.92;;
21569;SDS011;57598;50.888;4.746;2023-09-19T15:33:39;19.83;;;18.63;;
21569;SDS011;57598;50.888;4.746;2023-09-19T15:36:06;19.83;;;18.63;;
21569;SDS011;57598;50.888;4.746;2023-09-19T15:38:50;21.10;;;19.48;;
21569;SDS011;57598;50.888;4.746;2023-09-19T15:41:22;20.00;;;18.80;;
21569;SDS011;57598;50.888;4.746;2023-09-19T15:43:49;20.73;;;19.35;;
21569;SDS011;57598;50.888;4.746;2023-09-19T15:46:17;19.98;;;18.77;;
21569;SDS011;57598;50.888;4.746;2023-09-19T15:48:45;19.90;;;18.70;;
21569;SDS011;57598;50.888;4.746;2023-09-19T15:51:13;23.50;;;20.20;;
21569;SDS011;57598;50.888;4.746;2023-09-19T15:53:41;20.50;;;19.30;;
21569;SDS011;57598;50.888;4.746;2023-09-19T15:56:09;22.40;;;19.88;;
21569;SDS011;57598;50.888;4.746;2023-09-19T15:58:36;22.77;;;20.55;;
21569;SDS011;57598;50.888;4.746;2023-09-19T16:01:04;21.05;;;19.75;;
21569;SDS011;57598;50.888;4.746;2023-09-19T16:03:33;21.55;;;20.02;;
21569;SDS011;57598;50.888;4.746;2023-09-19T16:06:02;20.77;;;19.58;;
21569;SDS011;57598;50.888;4.746;2023-09-19T16:08:34;20.88;;;19.65;;
21569;SDS011;57598;50.888;4.746;2023-09-19T16:11:02;20.83;;;19.63;;
21569;SDS011;57598;50.888;4.746;2023-09-19T16:13:30;20.35;;;19.25;;
21569;SDS011;57598;50.888;4.746;2023-09-19T16:15:57;22.20;;;20.90;;
21569;SDS011;57598;50.888;4.746;2023-09-19T16:18:24;21.00;;;19.83;;
21569;SDS011;57598;50.888;4.746;2023-09-19T16:20:52;22.50;;;21.05;;
21569;SDS011;57598;50.888;4.746;2023-09-19T16:23:20;21.15;;;19.95;;
21569;SDS011;57598;50.888;4.746;2023-09-19T16:25:47;21.70;;;20.23;;
21569;SDS011;57598;50.888;4.746;2023-09-19T16:28:15;21.60;;;19.92;;
21569;SDS011;57598;50.888;4.746;2023-09-19T16:30:42;22.65;;;21.30;;
21569;SDS011;57598;50.888;4.746;2023-09-19T16:33:10;21.92;;;20.58;;
21569;SDS011;57598;50.888;4.746;2023-09-19T16:35:37;21.42;;;20.23;;
21569;SDS011;57598;50.888;4.746;2023-09-19T16:38:04;23.45;;;21.08;;
21569;SDS011;57598;50.888;4.746;2023-09-19T16:40:33;22.38;;;20.98;;
21569;SDS011;57598;50.888;4.746;2023-09-19T16:43:01;22.35;;;20.92;;
21569;SDS011;57598;50.888;4.746;2023-09-19T16:45:28;22.00;;;20.73;;
21569;SDS011;57598;50.888;4.746;2023-09-19T16:47:55;21.20;;;19.85;;
21569;SDS011;57598;50.888;4.746;2023-09-19T16:50:23;23.08;;;21.40;;
21569;SDS011;57598;50.888;4.746;2023-09-19T16:52:50;22.73;;;21.42;;
21569;SDS011;57598;50.888;4.746;2023-09-19T16:55:17;22.15;;;20.95;;
21569;SDS011;57598;50.888;4.746;2023-09-19T16:57:47;21.73;;;20.52;;
21569;SDS011;57598;50.888;4.746;2023-09-19T17:00:15;23.02;;;21.70;;
21569;SDS011;57598;50.888;4.746;2023-09-19T17:02:46;24.83;;;23.08;;
21569;SDS011;57598;50.888;4.746;2023-09-19T17:05:14;24.40;;;23.00;;
21569;SDS011;57598;50.888;4.746;2023-09-19T17:07:43;25.10;;;23.60;;
21569;SDS011;57598;50.888;4.746;2023-09-19T17:10:10;24.08;;;22.50;;
21569;SDS011;57598;50.888;4.746;2023-09-19T17:12:37;25.63;;;24.13;;
21569;SDS011;57598;50.888;4.746;2023-09-19T17:15:07;27.25;;;25.20;;
21569;SDS011;57598;50.888;4.746;2023-09-19T17:17:34;25.75;;;24.17;;
21569;SDS011;57598;50.888;4.746;2023-09-19T17:20:02;28.20;;;25.17;;
21569;SDS011;57598;50.888;4.746;2023-09-19T17:22:29;26.13;;;24.52;;
21569;SDS011;57598;50.888;4.746;2023-09-19T17:24:57;27.77;;;25.88;;